sensor_id;sensor_type;location;lat;lon;timestamp;temperature;humidity
16521;DHT22;8373;48.110;11.522;2022-12-10T00:01:51;4.80;80.20
16521;DHT22;8373;48.110;11.522;2022-12-10T00:04:18;4.80;80.40
16521;DHT22;8373;48.110;11.522;2022-12-10T00:06:46;4.70;80.30
16521;DHT22;8373;48.110;11.522;2022-12-10T00:09:15;4.60;80.20
16521;DHT22;8373;48.110;11.522;2022-12-10T00:11:42;4.70;80.70
16521;DHT22;8373;48.110;11.522;2022-12-10T00:14:11;4.70;80.70
16521;DHT22;8373;48.110;11.522;2022-12-10T00:16:38;4.70;80.70
16521;DHT22;8373;48.110;11.522;2022-12-10T00:19:07;4.70;80.70
16521;DHT22;8373;48.110;11.522;2022-12-10T00:21:36;4.70;80.60
16521;DHT22;8373;48.110;11.522;2022-12-10T00:24:04;4.70;80.70
16521;DHT22;8373;48.110;11.522;2022-12-10T00:26:33;4.70;80.80
16521;DHT22;8373;48.110;11.522;2022-12-10T00:29:01;4.70;80.80
16521;DHT22;8373;48.110;11.522;2022-12-10T00:31:30;4.70;80.80
16521;DHT22;8373;48.110;11.522;2022-12-10T00:33:59;4.80;80.90
16521;DHT22;8373;48.110;11.522;2022-12-10T00:36:29;4.80;80.80
16521;DHT22;8373;48.110;11.522;2022-12-10T00:38:57;4.70;80.50
16521;DHT22;8373;48.110;11.522;2022-12-10T00:41:24;4.70;80.70
16521;DHT22;8373;48.110;11.522;2022-12-10T00:43:51;4.80;80.90
16521;DHT22;8373;48.110;11.522;2022-12-10T00:46:19;4.80;80.90
16521;DHT22;8373;48.110;11.522;2022-12-10T00:48:46;4.70;80.80
16521;DHT22;8373;48.110;11.522;2022-12-10T00:51:14;4.70;80.80
16521;DHT22;8373;48.110;11.522;2022-12-10T00:53:44;4.60;80.80
16521;DHT22;8373;48.110;11.522;2022-12-10T00:56:13;4.60;81.10
16521;DHT22;8373;48.110;11.522;2022-12-10T00:58:40;4.70;81.20
16521;DHT22;8373;48.110;11.522;2022-12-10T01:01:09;4.80;81.30
16521;DHT22;8373;48.110;11.522;2022-12-10T01:03:37;4.80;81.20
16521;DHT22;8373;48.110;11.522;2022-12-10T01:06:09;4.80;81.40
16521;DHT22;8373;48.110;11.522;2022-12-10T01:08:36;4.80;81.30
16521;DHT22;8373;48.110;11.522;2022-12-10T01:11:05;4.80;81.30
16521;DHT22;8373;48.110;11.522;2022-12-10T01:13:32;4.80;81.50
16521;DHT22;8373;48.110;11.522;2022-12-10T01:16:00;4.80;81.50
16521;DHT22;8373;48.110;11.522;2022-12-10T01:18:27;4.80;81.50
16521;DHT22;8373;48.110;11.522;2022-12-10T01:20:54;4.80;81.50
16521;DHT22;8373;48.110;11.522;2022-12-10T01:23:21;4.80;81.30
16521;DHT22;8373;48.110;11.522;2022-12-10T01:25:48;4.80;81.30
16521;DHT22;8373;48.110;11.522;2022-12-10T01:28:17;4.70;81.20
16521;DHT22;8373;48.110;11.522;2022-12-10T01:30:44;4.80;81.50
16521;DHT22;8373;48.110;11.522;2022-12-10T01:33:11;4.70;81.60
16521;DHT22;8373;48.110;11.522;2022-12-10T01:35:38;4.70;81.60
16521;DHT22;8373;48.110;11.522;2022-12-10T01:38:05;4.70;81.80
16521;DHT22;8373;48.110;11.522;2022-12-10T01:40:37;4.70;81.80
16521;DHT22;8373;48.110;11.522;2022-12-10T01:43:04;4.50;81.60
16521;DHT22;8373;48.110;11.522;2022-12-10T01:45:33;4.40;81.80
16521;DHT22;8373;48.110;11.522;2022-12-10T01:47:59;4.40;82.10
16521;DHT22;8373;48.110;11.522;2022-12-10T01:50:26;4.50;82.50
16521;DHT22;8373;48.110;11.522;2022-12-10T01:52:53;4.60;82.40
16521;DHT22;8373;48.110;11.522;2022-12-10T01:55:41;4.70;82.20
16521;DHT22;8373;48.110;11.522;2022-12-10T01:58:08;4.60;82.00
16521;DHT22;8373;48.110;11.522;2022-12-10T02:00:41;4.60;81.90
16521;DHT22;8373;48.110;11.522;2022-12-10T02:03:14;4.60;81.90
16521;DHT22;8373;48.110;11.522;2022-12-10T02:05:46;4.60;81.70
16521;DHT22;8373;48.110;11.522;2022-12-10T02:08:22;4.60;81.70
16521;DHT22;8373;48.110;11.522;2022-12-10T02:10:58;4.70;81.80
16521;DHT22;8373;48.110;11.522;2022-12-10T02:13:30;4.70;81.70
16521;DHT22;8373;48.110;11.522;2022-12-10T02:16:06;4.70;81.50
16521;DHT22;8373;48.110;11.522;2022-12-10T02:18:38;4.70;81.70
16521;DHT22;8373;48.110;11.522;2022-12-10T02:21:11;4.60;81.70
16521;DHT22;8373;48.110;11.522;2022-12-10T02:23:44;4.70;82.10
16521;DHT22;8373;48.110;11.522;2022-12-10T02:26:18;4.70;82.20
16521;DHT22;8373;48.110;11.522;2022-12-10T02:28:51;4.70;82.10
16521;DHT22;8373;48.110;11.522;2022-12-10T02:31:24;4.70;81.90
16521;DHT22;8373;48.110;11.522;2022-12-10T02:33:57;4.70;81.90
16521;DHT22;8373;48.110;11.522;2022-12-10T02:36:27;4.70;81.90
16521;DHT22;8373;48.110;11.522;2022-12-10T02:38:56;4.70;81.70
16521;DHT22;8373;48.110;11.522;2022-12-10T02:41:30;4.70;81.80
16521;DHT22;8373;48.110;11.522;2022-12-10T02:44:03;4.60;81.40
16521;DHT22;8373;48.110;11.522;2022-12-10T02:46:33;4.60;81.50
16521;DHT22;8373;48.110;11.522;2022-12-10T02:49:03;4.60;81.60
16521;DHT22;8373;48.110;11.522;2022-12-10T02:51:31;4.50;81.40
16521;DHT22;8373;48.110;11.522;2022-12-10T02:53:59;4.50;82.00
16521;DHT22;8373;48.110;11.522;2022-12-10T02:56:33;4.60;82.20
16521;DHT22;8373;48.110;11.522;2022-12-10T02:59:09;4.60;82.30
16521;DHT22;8373;48.110;11.522;2022-12-10T03:01:47;4.60;82.30
16521;DHT22;8373;48.110;11.522;2022-12-10T03:04:22;4.60;82.40
16521;DHT22;8373;48.110;11.522;2022-12-10T03:06:53;4.60;82.20
16521;DHT22;8373;48.110;11.522;2022-12-10T03:09:24;4.60;82.10
16521;DHT22;8373;48.110;11.522;2022-12-10T03:11:58;4.60;82.10
16521;DHT22;8373;48.110;11.522;2022-12-10T03:14:28;4.60;82.40
16521;DHT22;8373;48.110;11.522;2022-12-10T03:16:59;4.60;82.30
16521;DHT22;8373;48.110;11.522;2022-12-10T03:19:28;4.60;82.90
16521;DHT22;8373;48.110;11.522;2022-12-10T03:21:58;4.70;82.30
16521;DHT22;8373;48.110;11.522;2022-12-10T03:24:26;4.60;82.10
16521;DHT22;8373;48.110;11.522;2022-12-10T03:26:54;4.60;82.10
16521;DHT22;8373;48.110;11.522;2022-12-10T03:29:23;4.60;82.10
16521;DHT22;8373;48.110;11.522;2022-12-10T03:31:52;4.60;82.70
16521;DHT22;8373;48.110;11.522;2022-12-10T03:34:22;4.60;82.00
16521;DHT22;8373;48.110;11.522;2022-12-10T03:36:50;4.70;82.10
16521;DHT22;8373;48.110;11.522;2022-12-10T03:39:18;4.70;81.80
16521;DHT22;8373;48.110;11.522;2022-12-10T03:41:45;4.70;81.50
16521;DHT22;8373;48.110;11.522;2022-12-10T03:44:12;4.70;81.30
16521;DHT22;8373;48.110;11.522;2022-12-10T03:46:39;4.60;81.20
16521;DHT22;8373;48.110;11.522;2022-12-10T03:49:06;4.60;81.30
16521;DHT22;8373;48.110;11.522;2022-12-10T03:51:35;4.50;81.10
16521;DHT22;8373;48.110;11.522;2022-12-10T03:54:02;4.50;81.20
16521;DHT22;8373;48.110;11.522;2022-12-10T03:56:29;4.50;81.50
16521;DHT22;8373;48.110;11.522;2022-12-10T03:58:56;4.50;81.60
16521;DHT22;8373;48.110;11.522;2022-12-10T04:01:23;4.50;82.00
16521;DHT22;8373;48.110;11.522;2022-12-10T04:03:50;4.50;81.70
16521;DHT22;8373;48.110;11.522;2022-12-10T04:06:18;4.50;81.70
16521;DHT22;8373;48.110;11.522;2022-12-10T04:08:47;4.50;81.60
16521;DHT22;8373;48.110;11.522;2022-12-10T04:11:15;4.50;81.60
16521;DHT22;8373;48.110;11.522;2022-12-10T04:13:43;4.40;81.40
16521;DHT22;8373;48.110;11.522;2022-12-10T04:16:28;4.40;81.50
16521;DHT22;8373;48.110;11.522;2022-12-10T04:18:57;4.40;81.60
16521;DHT22;8373;48.110;11.522;2022-12-10T04:21:24;4.40;81.50
16521;DHT22;8373;48.110;11.522;2022-12-10T04:24:11;4.40;81.40
16521;DHT22;8373;48.110;11.522;2022-12-10T04:26:58;4.40;81.80
16521;DHT22;8373;48.110;11.522;2022-12-10T04:29:27;4.40;82.00
16521;DHT22;8373;48.110;11.522;2022-12-10T04:31:56;4.40;82.00
16521;DHT22;8373;48.110;11.522;2022-12-10T04:34:23;4.40;82.00
16521;DHT22;8373;48.110;11.522;2022-12-10T04:36:50;4.40;82.00
16521;DHT22;8373;48.110;11.522;2022-12-10T04:39:19;4.40;81.80
16521;DHT22;8373;48.110;11.522;2022-12-10T04:41:47;4.40;82.00
16521;DHT22;8373;48.110;11.522;2022-12-10T04:44:15;4.40;82.00
16521;DHT22;8373;48.110;11.522;2022-12-10T04:46:42;4.40;82.10
16521;DHT22;8373;48.110;11.522;2022-12-10T04:49:09;4.50;82.50
16521;DHT22;8373;48.110;11.522;2022-12-10T04:51:36;4.50;82.40
16521;DHT22;8373;48.110;11.522;2022-12-10T04:54:04;4.50;82.10
16521;DHT22;8373;48.110;11.522;2022-12-10T04:56:33;4.50;81.80
16521;DHT22;8373;48.110;11.522;2022-12-10T04:59:00;4.50;81.70
16521;DHT22;8373;48.110;11.522;2022-12-10T05:01:28;4.50;81.30
16521;DHT22;8373;48.110;11.522;2022-12-10T05:03:58;4.50;81.60
16521;DHT22;8373;48.110;11.522;2022-12-10T05:06:25;4.50;81.70
16521;DHT22;8373;48.110;11.522;2022-12-10T05:08:52;4.50;81.70
16521;DHT22;8373;48.110;11.522;2022-12-10T05:11:22;4.50;81.60
16521;DHT22;8373;48.110;11.522;2022-12-10T05:13:52;4.50;81.70
16521;DHT22;8373;48.110;11.522;2022-12-10T05:16:20;4.50;81.30
16521;DHT22;8373;48.110;11.522;2022-12-10T05:18:48;4.50;81.10
16521;DHT22;8373;48.110;11.522;2022-12-10T05:21:17;4.50;81.10
16521;DHT22;8373;48.110;11.522;2022-12-10T05:23:47;4.40;81.20
16521;DHT22;8373;48.110;11.522;2022-12-10T05:26:15;4.40;81.40
16521;DHT22;8373;48.110;11.522;2022-12-10T05:28:44;4.50;81.70
16521;DHT22;8373;48.110;11.522;2022-12-10T05:31:13;4.50;81.70
16521;DHT22;8373;48.110;11.522;2022-12-10T05:33:41;4.50;81.70
16521;DHT22;8373;48.110;11.522;2022-12-10T05:36:10;4.50;81.60
16521;DHT22;8373;48.110;11.522;2022-12-10T05:38:38;4.50;81.40
16521;DHT22;8373;48.110;11.522;2022-12-10T05:41:08;4.50;81.30
16521;DHT22;8373;48.110;11.522;2022-12-10T05:43:35;4.50;81.10
16521;DHT22;8373;48.110;11.522;2022-12-10T05:46:03;4.50;81.00
16521;DHT22;8373;48.110;11.522;2022-12-10T05:48:33;4.50;81.10
16521;DHT22;8373;48.110;11.522;2022-12-10T05:51:03;4.50;81.00
16521;DHT22;8373;48.110;11.522;2022-12-10T05:53:30;4.50;80.90
16521;DHT22;8373;48.110;11.522;2022-12-10T05:55:59;4.50;80.90
16521;DHT22;8373;48.110;11.522;2022-12-10T05:58:27;4.40;80.90
16521;DHT22;8373;48.110;11.522;2022-12-10T06:00:55;4.50;81.10
16521;DHT22;8373;48.110;11.522;2022-12-10T06:03:22;4.50;81.30
16521;DHT22;8373;48.110;11.522;2022-12-10T06:05:50;4.50;81.40
16521;DHT22;8373;48.110;11.522;2022-12-10T06:08:17;4.50;81.20
16521;DHT22;8373;48.110;11.522;2022-12-10T06:10:44;4.50;81.10
16521;DHT22;8373;48.110;11.522;2022-12-10T06:13:11;4.50;80.90
16521;DHT22;8373;48.110;11.522;2022-12-10T06:15:40;4.50;81.10
16521;DHT22;8373;48.110;11.522;2022-12-10T06:18:07;4.50;81.10
16521;DHT22;8373;48.110;11.522;2022-12-10T06:20:37;4.50;81.00
16521;DHT22;8373;48.110;11.522;2022-12-10T06:23:06;4.50;80.90
16521;DHT22;8373;48.110;11.522;2022-12-10T06:25:37;4.40;80.50
16521;DHT22;8373;48.110;11.522;2022-12-10T06:28:04;4.40;80.90
16521;DHT22;8373;48.110;11.522;2022-12-10T06:30:32;4.40;80.70
16521;DHT22;8373;48.110;11.522;2022-12-10T06:32:59;4.40;80.70
16521;DHT22;8373;48.110;11.522;2022-12-10T06:35:26;4.40;81.10
16521;DHT22;8373;48.110;11.522;2022-12-10T06:37:53;4.40;81.10
16521;DHT22;8373;48.110;11.522;2022-12-10T06:40:22;4.30;81.10
16521;DHT22;8373;48.110;11.522;2022-12-10T06:42:50;4.30;81.10
16521;DHT22;8373;48.110;11.522;2022-12-10T06:45:18;4.30;81.40
16521;DHT22;8373;48.110;11.522;2022-12-10T06:47:45;4.30;81.60
16521;DHT22;8373;48.110;11.522;2022-12-10T06:50:12;4.20;81.50
16521;DHT22;8373;48.110;11.522;2022-12-10T06:52:39;4.30;81.90
16521;DHT22;8373;48.110;11.522;2022-12-10T06:55:06;4.20;81.90
16521;DHT22;8373;48.110;11.522;2022-12-10T06:57:35;4.30;82.00
16521;DHT22;8373;48.110;11.522;2022-12-10T07:00:02;4.30;81.90
16521;DHT22;8373;48.110;11.522;2022-12-10T07:02:29;4.20;81.80
16521;DHT22;8373;48.110;11.522;2022-12-10T07:04:56;4.30;81.90
16521;DHT22;8373;48.110;11.522;2022-12-10T07:07:25;4.20;81.70
16521;DHT22;8373;48.110;11.522;2022-12-10T07:09:52;4.20;81.50
16521;DHT22;8373;48.110;11.522;2022-12-10T07:12:19;4.20;81.50
16521;DHT22;8373;48.110;11.522;2022-12-10T07:14:47;4.20;81.60
16521;DHT22;8373;48.110;11.522;2022-12-10T07:17:14;4.20;81.50
16521;DHT22;8373;48.110;11.522;2022-12-10T07:19:41;4.20;81.60
16521;DHT22;8373;48.110;11.522;2022-12-10T07:22:09;4.20;81.40
16521;DHT22;8373;48.110;11.522;2022-12-10T07:24:36;4.20;81.20
16521;DHT22;8373;48.110;11.522;2022-12-10T07:27:05;4.30;80.90
16521;DHT22;8373;48.110;11.522;2022-12-10T07:29:32;4.20;80.60
16521;DHT22;8373;48.110;11.522;2022-12-10T07:32:00;4.20;80.50
16521;DHT22;8373;48.110;11.522;2022-12-10T07:34:28;4.30;80.70
16521;DHT22;8373;48.110;11.522;2022-12-10T07:36:55;4.30;80.70
16521;DHT22;8373;48.110;11.522;2022-12-10T07:39:22;4.30;80.60
16521;DHT22;8373;48.110;11.522;2022-12-10T07:41:50;4.30;80.50
16521;DHT22;8373;48.110;11.522;2022-12-10T07:44:18;4.30;80.50
16521;DHT22;8373;48.110;11.522;2022-12-10T07:46:47;4.30;80.20
16521;DHT22;8373;48.110;11.522;2022-12-10T07:49:16;4.30;80.20
16521;DHT22;8373;48.110;11.522;2022-12-10T07:51:44;4.30;80.10
16521;DHT22;8373;48.110;11.522;2022-12-10T07:54:11;4.40;80.40
16521;DHT22;8373;48.110;11.522;2022-12-10T07:56:38;4.30;80.30
16521;DHT22;8373;48.110;11.522;2022-12-10T07:59:06;4.40;80.10
16521;DHT22;8373;48.110;11.522;2022-12-10T08:01:33;4.40;79.90
16521;DHT22;8373;48.110;11.522;2022-12-10T08:04:00;4.40;79.50
16521;DHT22;8373;48.110;11.522;2022-12-10T08:06:28;4.40;79.60
16521;DHT22;8373;48.110;11.522;2022-12-10T08:08:57;4.40;79.70
16521;DHT22;8373;48.110;11.522;2022-12-10T08:11:24;4.50;79.80
16521;DHT22;8373;48.110;11.522;2022-12-10T08:13:52;4.50;79.20
16521;DHT22;8373;48.110;11.522;2022-12-10T08:16:20;4.50;78.90
16521;DHT22;8373;48.110;11.522;2022-12-10T08:18:48;4.50;78.80
16521;DHT22;8373;48.110;11.522;2022-12-10T08:21:16;4.40;78.70
16521;DHT22;8373;48.110;11.522;2022-12-10T08:23:45;4.40;79.60
16521;DHT22;8373;48.110;11.522;2022-12-10T08:26:14;4.50;79.80
16521;DHT22;8373;48.110;11.522;2022-12-10T08:28:42;4.60;79.70
16521;DHT22;8373;48.110;11.522;2022-12-10T08:31:10;4.60;78.20
16521;DHT22;8373;48.110;11.522;2022-12-10T08:33:38;4.60;78.10
16521;DHT22;8373;48.110;11.522;2022-12-10T08:36:06;4.60;78.40
16521;DHT22;8373;48.110;11.522;2022-12-10T08:38:34;4.70;78.90
16521;DHT22;8373;48.110;11.522;2022-12-10T08:41:07;4.50;78.60
16521;DHT22;8373;48.110;11.522;2022-12-10T08:43:34;4.40;78.40
16521;DHT22;8373;48.110;11.522;2022-12-10T08:46:01;4.40;78.60
16521;DHT22;8373;48.110;11.522;2022-12-10T08:48:29;4.40;78.50
16521;DHT22;8373;48.110;11.522;2022-12-10T08:50:56;4.50;78.50
16521;DHT22;8373;48.110;11.522;2022-12-10T08:53:24;4.50;78.40
16521;DHT22;8373;48.110;11.522;2022-12-10T08:55:52;4.50;78.80
16521;DHT22;8373;48.110;11.522;2022-12-10T08:58:21;4.60;78.50
16521;DHT22;8373;48.110;11.522;2022-12-10T09:00:49;4.60;78.20
16521;DHT22;8373;48.110;11.522;2022-12-10T09:03:16;4.60;78.30
16521;DHT22;8373;48.110;11.522;2022-12-10T09:05:44;4.60;78.50
16521;DHT22;8373;48.110;11.522;2022-12-10T09:08:11;4.70;78.70
16521;DHT22;8373;48.110;11.522;2022-12-10T09:10:38;4.70;78.50
16521;DHT22;8373;48.110;11.522;2022-12-10T09:13:06;4.70;78.50
16521;DHT22;8373;48.110;11.522;2022-12-10T09:15:34;4.70;78.90
16521;DHT22;8373;48.110;11.522;2022-12-10T09:18:01;4.70;79.00
16521;DHT22;8373;48.110;11.522;2022-12-10T09:20:30;4.80;78.80
16521;DHT22;8373;48.110;11.522;2022-12-10T09:22:57;4.70;78.50
16521;DHT22;8373;48.110;11.522;2022-12-10T09:25:24;4.70;78.70
16521;DHT22;8373;48.110;11.522;2022-12-10T09:27:51;4.70;78.30
16521;DHT22;8373;48.110;11.522;2022-12-10T09:30:18;4.80;77.90
16521;DHT22;8373;48.110;11.522;2022-12-10T09:32:46;4.80;78.10
16521;DHT22;8373;48.110;11.522;2022-12-10T09:35:13;4.80;78.60
16521;DHT22;8373;48.110;11.522;2022-12-10T09:37:40;4.90;79.00
16521;DHT22;8373;48.110;11.522;2022-12-10T09:40:08;4.90;78.20
16521;DHT22;8373;48.110;11.522;2022-12-10T09:42:45;4.80;77.60
16521;DHT22;8373;48.110;11.522;2022-12-10T09:45:20;4.70;77.40
16521;DHT22;8373;48.110;11.522;2022-12-10T09:47:55;4.70;77.30
16521;DHT22;8373;48.110;11.522;2022-12-10T09:50:29;4.70;78.60
16521;DHT22;8373;48.110;11.522;2022-12-10T09:52:59;4.70;78.40
16521;DHT22;8373;48.110;11.522;2022-12-10T09:55:34;4.60;78.30
16521;DHT22;8373;48.110;11.522;2022-12-10T09:58:03;4.50;78.60
16521;DHT22;8373;48.110;11.522;2022-12-10T10:00:34;4.50;78.30
16521;DHT22;8373;48.110;11.522;2022-12-10T10:03:03;4.50;78.50
16521;DHT22;8373;48.110;11.522;2022-12-10T10:05:35;4.50;78.40
16521;DHT22;8373;48.110;11.522;2022-12-10T10:08:04;4.50;78.30
16521;DHT22;8373;48.110;11.522;2022-12-10T10:10:33;4.50;78.30
16521;DHT22;8373;48.110;11.522;2022-12-10T10:13:14;4.60;78.70
16521;DHT22;8373;48.110;11.522;2022-12-10T10:15:44;4.70;78.50
16521;DHT22;8373;48.110;11.522;2022-12-10T10:18:17;4.70;78.70
16521;DHT22;8373;48.110;11.522;2022-12-10T10:20:48;4.60;78.50
16521;DHT22;8373;48.110;11.522;2022-12-10T10:23:16;4.50;78.40
16521;DHT22;8373;48.110;11.522;2022-12-10T10:25:43;4.60;78.80
16521;DHT22;8373;48.110;11.522;2022-12-10T10:28:12;4.60;78.80
16521;DHT22;8373;48.110;11.522;2022-12-10T10:30:42;4.60;78.80
16521;DHT22;8373;48.110;11.522;2022-12-10T10:33:11;4.50;78.60
16521;DHT22;8373;48.110;11.522;2022-12-10T10:35:45;4.60;78.30
16521;DHT22;8373;48.110;11.522;2022-12-10T10:38:18;4.40;78.50
16521;DHT22;8373;48.110;11.522;2022-12-10T10:40:50;4.40;79.40
16521;DHT22;8373;48.110;11.522;2022-12-10T10:43:21;4.50;79.30
16521;DHT22;8373;48.110;11.522;2022-12-10T10:45:51;4.50;79.20
16521;DHT22;8373;48.110;11.522;2022-12-10T10:48:20;4.50;79.00
16521;DHT22;8373;48.110;11.522;2022-12-10T10:50:51;4.40;79.20
16521;DHT22;8373;48.110;11.522;2022-12-10T10:53:26;4.40;79.80
16521;DHT22;8373;48.110;11.522;2022-12-10T10:55:56;4.50;79.90
16521;DHT22;8373;48.110;11.522;2022-12-10T10:58:24;4.40;79.70
16521;DHT22;8373;48.110;11.522;2022-12-10T11:01:00;4.40;79.80
16521;DHT22;8373;48.110;11.522;2022-12-10T11:03:28;4.50;80.40
16521;DHT22;8373;48.110;11.522;2022-12-10T11:05:58;4.60;80.50
16521;DHT22;8373;48.110;11.522;2022-12-10T11:08:29;4.70;80.30
16521;DHT22;8373;48.110;11.522;2022-12-10T11:11:01;4.70;79.90
16521;DHT22;8373;48.110;11.522;2022-12-10T11:13:30;4.70;79.90
16521;DHT22;8373;48.110;11.522;2022-12-10T11:16:00;4.60;80.20
16521;DHT22;8373;48.110;11.522;2022-12-10T11:18:31;4.70;80.80
16521;DHT22;8373;48.110;11.522;2022-12-10T11:21:03;4.80;80.90
16521;DHT22;8373;48.110;11.522;2022-12-10T11:23:36;4.80;79.60
16521;DHT22;8373;48.110;11.522;2022-12-10T11:26:16;4.70;79.30
16521;DHT22;8373;48.110;11.522;2022-12-10T11:28:55;4.80;79.70
16521;DHT22;8373;48.110;11.522;2022-12-10T11:31:38;4.90;79.90
16521;DHT22;8373;48.110;11.522;2022-12-10T11:34:12;4.90;80.00
16521;DHT22;8373;48.110;11.522;2022-12-10T11:36:52;4.90;79.50
16521;DHT22;8373;48.110;11.522;2022-12-10T11:39:33;4.90;79.70
16521;DHT22;8373;48.110;11.522;2022-12-10T11:42:14;4.90;79.80
16521;DHT22;8373;48.110;11.522;2022-12-10T11:44:47;4.70;79.60
16521;DHT22;8373;48.110;11.522;2022-12-10T11:47:29;4.70;79.20
16521;DHT22;8373;48.110;11.522;2022-12-10T11:50:07;4.60;79.40
16521;DHT22;8373;48.110;11.522;2022-12-10T11:52:47;4.60;79.60
16521;DHT22;8373;48.110;11.522;2022-12-10T11:55:27;4.50;79.70
16521;DHT22;8373;48.110;11.522;2022-12-10T11:58:08;4.50;79.50
16521;DHT22;8373;48.110;11.522;2022-12-10T12:00:47;4.60;79.80
16521;DHT22;8373;48.110;11.522;2022-12-10T12:03:38;4.70;80.30
16521;DHT22;8373;48.110;11.522;2022-12-10T12:06:20;4.80;80.40
16521;DHT22;8373;48.110;11.522;2022-12-10T12:08:57;4.80;80.30
16521;DHT22;8373;48.110;11.522;2022-12-10T12:11:45;4.70;80.00
16521;DHT22;8373;48.110;11.522;2022-12-10T12:14:19;4.70;80.20
16521;DHT22;8373;48.110;11.522;2022-12-10T12:16:54;4.60;79.60
16521;DHT22;8373;48.110;11.522;2022-12-10T12:19:31;4.60;79.70
16521;DHT22;8373;48.110;11.522;2022-12-10T12:22:02;4.50;79.70
16521;DHT22;8373;48.110;11.522;2022-12-10T12:24:35;4.60;80.20
16521;DHT22;8373;48.110;11.522;2022-12-10T12:27:07;4.60;80.20
16521;DHT22;8373;48.110;11.522;2022-12-10T12:29:40;4.70;79.90
16521;DHT22;8373;48.110;11.522;2022-12-10T12:32:15;4.70;79.70
16521;DHT22;8373;48.110;11.522;2022-12-10T12:34:47;4.70;79.70
16521;DHT22;8373;48.110;11.522;2022-12-10T12:37:18;4.60;79.30
16521;DHT22;8373;48.110;11.522;2022-12-10T12:39:50;4.50;79.20
16521;DHT22;8373;48.110;11.522;2022-12-10T12:42:24;4.40;79.30
16521;DHT22;8373;48.110;11.522;2022-12-10T12:45:03;4.30;79.70
16521;DHT22;8373;48.110;11.522;2022-12-10T12:47:37;4.20;79.70
16521;DHT22;8373;48.110;11.522;2022-12-10T12:50:19;4.20;80.00
16521;DHT22;8373;48.110;11.522;2022-12-10T12:52:51;4.30;80.70
16521;DHT22;8373;48.110;11.522;2022-12-10T12:55:24;4.40;81.30
16521;DHT22;8373;48.110;11.522;2022-12-10T12:57:56;4.50;81.30
16521;DHT22;8373;48.110;11.522;2022-12-10T13:00:29;4.50;81.00
16521;DHT22;8373;48.110;11.522;2022-12-10T13:03:17;4.50;80.20
16521;DHT22;8373;48.110;11.522;2022-12-10T13:05:48;4.50;80.30
16521;DHT22;8373;48.110;11.522;2022-12-10T13:08:41;4.60;80.70
16521;DHT22;8373;48.110;11.522;2022-12-10T13:11:19;4.60;80.60
16521;DHT22;8373;48.110;11.522;2022-12-10T13:14:30;4.50;80.20
16521;DHT22;8373;48.110;11.522;2022-12-10T13:17:26;4.60;80.70
16521;DHT22;8373;48.110;11.522;2022-12-10T13:19:54;4.60;80.70
16521;DHT22;8373;48.110;11.522;2022-12-10T13:22:42;4.60;80.60
16521;DHT22;8373;48.110;11.522;2022-12-10T13:25:42;4.70;80.70
16521;DHT22;8373;48.110;11.522;2022-12-10T13:28:28;4.70;80.80
16521;DHT22;8373;48.110;11.522;2022-12-10T13:31:20;4.60;80.20
16521;DHT22;8373;48.110;11.522;2022-12-10T13:33:51;4.60;80.40
16521;DHT22;8373;48.110;11.522;2022-12-10T13:36:25;4.60;80.20
16521;DHT22;8373;48.110;11.522;2022-12-10T13:39:04;4.60;80.20
16521;DHT22;8373;48.110;11.522;2022-12-10T13:41:40;4.60;80.40
16521;DHT22;8373;48.110;11.522;2022-12-10T13:44:35;4.60;80.40
16521;DHT22;8373;48.110;11.522;2022-12-10T13:47:05;4.60;80.50
16521;DHT22;8373;48.110;11.522;2022-12-10T13:49:52;4.60;80.60
16521;DHT22;8373;48.110;11.522;2022-12-10T13:52:24;4.70;80.60
16521;DHT22;8373;48.110;11.522;2022-12-10T13:55:09;4.70;80.40
16521;DHT22;8373;48.110;11.522;2022-12-10T13:57:59;4.70;80.60
16521;DHT22;8373;48.110;11.522;2022-12-10T14:00:35;4.80;80.80
16521;DHT22;8373;48.110;11.522;2022-12-10T14:06:13;4.70;81.00
16521;DHT22;8373;48.110;11.522;2022-12-10T14:08:54;4.70;81.00
16521;DHT22;8373;48.110;11.522;2022-12-10T14:11:24;4.60;80.80
16521;DHT22;8373;48.110;11.522;2022-12-10T14:13:55;4.60;81.10
16521;DHT22;8373;48.110;11.522;2022-12-10T14:16:28;4.60;81.30
16521;DHT22;8373;48.110;11.522;2022-12-10T14:18:58;4.60;81.20
16521;DHT22;8373;48.110;11.522;2022-12-10T14:21:26;4.60;81.30
16521;DHT22;8373;48.110;11.522;2022-12-10T14:23:53;4.60;81.10
16521;DHT22;8373;48.110;11.522;2022-12-10T14:26:22;4.60;81.10
16521;DHT22;8373;48.110;11.522;2022-12-10T14:28:55;4.60;81.20
16521;DHT22;8373;48.110;11.522;2022-12-10T14:31:27;4.60;81.20
16521;DHT22;8373;48.110;11.522;2022-12-10T14:33:59;4.60;81.10
16521;DHT22;8373;48.110;11.522;2022-12-10T14:36:29;4.50;80.90
16521;DHT22;8373;48.110;11.522;2022-12-10T14:38:57;4.50;81.10
16521;DHT22;8373;48.110;11.522;2022-12-10T14:41:27;4.40;81.20
16521;DHT22;8373;48.110;11.522;2022-12-10T14:43:58;4.40;81.20
16521;DHT22;8373;48.110;11.522;2022-12-10T14:46:30;4.30;80.90
16521;DHT22;8373;48.110;11.522;2022-12-10T14:48:58;4.30;80.90
16521;DHT22;8373;48.110;11.522;2022-12-10T14:51:30;4.30;80.80
16521;DHT22;8373;48.110;11.522;2022-12-10T14:53:58;4.20;80.60
16521;DHT22;8373;48.110;11.522;2022-12-10T14:56:30;4.30;80.80
16521;DHT22;8373;48.110;11.522;2022-12-10T14:59:04;4.40;80.90
16521;DHT22;8373;48.110;11.522;2022-12-10T15:01:36;4.40;80.80
16521;DHT22;8373;48.110;11.522;2022-12-10T15:04:05;4.40;80.70
16521;DHT22;8373;48.110;11.522;2022-12-10T15:06:34;4.30;80.50
16521;DHT22;8373;48.110;11.522;2022-12-10T15:09:03;4.30;80.60
16521;DHT22;8373;48.110;11.522;2022-12-10T15:11:31;4.40;81.00
16521;DHT22;8373;48.110;11.522;2022-12-10T15:14:00;4.40;80.90
16521;DHT22;8373;48.110;11.522;2022-12-10T15:16:30;4.30;80.50
16521;DHT22;8373;48.110;11.522;2022-12-10T15:19:13;4.30;80.50
16521;DHT22;8373;48.110;11.522;2022-12-10T15:21:44;4.30;80.70
16521;DHT22;8373;48.110;11.522;2022-12-10T15:24:17;4.30;80.70
16521;DHT22;8373;48.110;11.522;2022-12-10T15:26:46;4.30;80.70
16521;DHT22;8373;48.110;11.522;2022-12-10T15:29:32;4.40;81.10
16521;DHT22;8373;48.110;11.522;2022-12-10T15:32:04;4.40;80.90
16521;DHT22;8373;48.110;11.522;2022-12-10T15:34:38;4.40;80.60
16521;DHT22;8373;48.110;11.522;2022-12-10T15:37:15;4.40;80.70
16521;DHT22;8373;48.110;11.522;2022-12-10T15:39:48;4.40;80.70
16521;DHT22;8373;48.110;11.522;2022-12-10T15:42:31;4.40;80.60
16521;DHT22;8373;48.110;11.522;2022-12-10T15:45:08;4.40;80.80
16521;DHT22;8373;48.110;11.522;2022-12-10T15:47:37;4.40;80.70
16521;DHT22;8373;48.110;11.522;2022-12-10T15:50:06;4.40;80.70
16521;DHT22;8373;48.110;11.522;2022-12-10T15:52:33;4.20;80.30
16521;DHT22;8373;48.110;11.522;2022-12-10T15:55:01;4.20;80.70
16521;DHT22;8373;48.110;11.522;2022-12-10T15:57:30;4.30;80.80
16521;DHT22;8373;48.110;11.522;2022-12-10T15:59:59;4.20;80.40
16521;DHT22;8373;48.110;11.522;2022-12-10T16:02:36;4.20;80.80
16521;DHT22;8373;48.110;11.522;2022-12-10T16:05:12;4.30;81.00
16521;DHT22;8373;48.110;11.522;2022-12-10T16:07:39;4.20;80.90
16521;DHT22;8373;48.110;11.522;2022-12-10T16:10:08;4.30;81.10
16521;DHT22;8373;48.110;11.522;2022-12-10T16:12:37;4.20;80.50